sensor_id;sensor_type;location;lat;lon;timestamp;pressure;altitude;pressure_sealevel;temperature;humidity
41706;BME280;27385;51.096;17.190;2023-03-21T00:01:56;100310.30;;;9.23;93.37
41706;BME280;27385;51.096;17.190;2023-03-21T00:04:28;100308.47;;;9.21;93.64
41706;BME280;27385;51.096;17.190;2023-03-21T00:06:59;100304.52;;;9.19;93.51
41706;BME280;27385;51.096;17.190;2023-03-21T00:09:30;100302.10;;;9.17;93.67
41706;BME280;27385;51.096;17.190;2023-03-21T00:12:01;100300.43;;;9.18;93.70
41706;BME280;27385;51.096;17.190;2023-03-21T00:14:37;100300.20;;;9.18;93.69
41706;BME280;27385;51.096;17.190;2023-03-21T00:17:08;100297.77;;;9.16;93.67
41706;BME280;27385;51.096;17.190;2023-03-21T00:19:39;100294.24;;;9.15;93.73
41706;BME280;27385;51.096;17.190;2023-03-21T00:22:10;100291.43;;;9.14;93.82
41706;BME280;27385;51.096;17.190;2023-03-21T00:24:42;100289.79;;;9.15;93.85
41706;BME280;27385;51.096;17.190;2023-03-21T00:27:14;100284.04;;;9.16;93.88
41706;BME280;27385;51.096;17.190;2023-03-21T00:29:44;100280.29;;;9.16;94.02
41706;BME280;27385;51.096;17.190;2023-03-21T00:32:18;100275.79;;;9.14;94.03
41706;BME280;27385;51.096;17.190;2023-03-21T00:34:49;100268.50;;;9.13;94.14
41706;BME280;27385;51.096;17.190;2023-03-21T00:37:21;100266.77;;;9.12;94.30
41706;BME280;27385;51.096;17.190;2023-03-21T00:39:51;100273.96;;;9.12;94.31
41706;BME280;27385;51.096;17.190;2023-03-21T00:42:22;100271.95;;;9.11;94.60
41706;BME280;27385;51.096;17.190;2023-03-21T00:44:53;100273.16;;;9.10;94.36
41706;BME280;27385;51.096;17.190;2023-03-21T00:47:25;100273.06;;;9.11;94.53
41706;BME280;27385;51.096;17.190;2023-03-21T00:49:55;100271.14;;;9.11;94.16
41706;BME280;27385;51.096;17.190;2023-03-21T00:52:27;100271.89;;;9.12;94.42
41706;BME280;27385;51.096;17.190;2023-03-21T00:54:58;100268.90;;;9.13;94.36
41706;BME280;27385;51.096;17.190;2023-03-21T00:57:30;100262.23;;;9.13;94.29
41706;BME280;27385;51.096;17.190;2023-03-21T01:00:01;100265.56;;;9.13;94.57
41706;BME280;27385;51.096;17.190;2023-03-21T01:02:32;100267.09;;;9.11;94.56
41706;BME280;27385;51.096;17.190;2023-03-21T01:05:04;100265.30;;;9.12;94.55
41706;BME280;27385;51.096;17.190;2023-03-21T01:07:35;100261.88;;;9.11;94.37
41706;BME280;27385;51.096;17.190;2023-03-21T01:10:07;100261.42;;;9.11;94.45
41706;BME280;27385;51.096;17.190;2023-03-21T01:12:40;100265.64;;;9.11;94.73
41706;BME280;27385;51.096;17.190;2023-03-21T01:15:11;100269.41;;;9.09;94.87
41706;BME280;27385;51.096;17.190;2023-03-21T01:17:42;100277.41;;;9.03;94.91
41706;BME280;27385;51.096;17.190;2023-03-21T01:20:14;100274.95;;;8.95;95.13
41706;BME280;27385;51.096;17.190;2023-03-21T01:22:45;100279.80;;;8.89;95.73
41706;BME280;27385;51.096;17.190;2023-03-21T01:25:16;100274.20;;;8.84;96.27
41706;BME280;27385;51.096;17.190;2023-03-21T01:27:46;100277.94;;;8.80;96.69
41706;BME280;27385;51.096;17.190;2023-03-21T01:30:18;100276.44;;;8.79;97.13
41706;BME280;27385;51.096;17.190;2023-03-21T01:32:49;100277.29;;;8.77;97.30
41706;BME280;27385;51.096;17.190;2023-03-21T01:35:20;100272.45;;;8.75;97.37
41706;BME280;27385;51.096;17.190;2023-03-21T01:37:52;100267.34;;;8.74;97.21
41706;BME280;27385;51.096;17.190;2023-03-21T01:40:24;100263.86;;;8.74;97.08
41706;BME280;27385;51.096;17.190;2023-03-21T01:42:56;100260.09;;;8.71;97.38
41706;BME280;27385;51.096;17.190;2023-03-21T01:46:07;100253.13;;;8.68;96.99
41706;BME280;27385;51.096;17.190;2023-03-21T01:48:41;100254.55;;;8.65;96.68
41706;BME280;27385;51.096;17.190;2023-03-21T01:51:13;100255.23;;;8.62;96.70
41706;BME280;27385;51.096;17.190;2023-03-21T01:53:45;100254.27;;;8.59;96.57
41706;BME280;27385;51.096;17.190;2023-03-21T01:56:22;100241.92;;;8.58;96.43
41706;BME280;27385;51.096;17.190;2023-03-21T01:58:57;100232.52;;;8.56;96.15
41706;BME280;27385;51.096;17.190;2023-03-21T02:01:32;100231.44;;;8.55;96.08
41706;BME280;27385;51.096;17.190;2023-03-21T02:04:06;100234.38;;;8.54;95.93
41706;BME280;27385;51.096;17.190;2023-03-21T02:06:42;100235.65;;;8.52;96.10
41706;BME280;27385;51.096;17.190;2023-03-21T02:09:17;100240.79;;;8.53;96.20
41706;BME280;27385;51.096;17.190;2023-03-21T02:11:49;100245.29;;;8.52;96.17
41706;BME280;27385;51.096;17.190;2023-03-21T02:14:21;100249.36;;;8.51;96.07
41706;BME280;27385;51.096;17.190;2023-03-21T02:17:02;100250.18;;;8.49;95.97
41706;BME280;27385;51.096;17.190;2023-03-21T02:20:06;100249.45;;;8.48;96.15
41706;BME280;27385;51.096;17.190;2023-03-21T02:23:19;100255.34;;;8.45;96.19
41706;BME280;27385;51.096;17.190;2023-03-21T02:28:55;100257.41;;;8.40;96.31
41706;BME280;27385;51.096;17.190;2023-03-21T02:31:41;100260.48;;;8.37;96.32
41706;BME280;27385;51.096;17.190;2023-03-21T02:34:47;100263.56;;;8.34;96.38
41706;BME280;27385;51.096;17.190;2023-03-21T02:37:22;100266.78;;;8.31;96.45
41706;BME280;27385;51.096;17.190;2023-03-21T02:40:03;100269.25;;;8.29;96.50
41706;BME280;27385;51.096;17.190;2023-03-21T02:42:44;100270.20;;;8.27;96.53
41706;BME280;27385;51.096;17.190;2023-03-21T02:45:21;100272.84;;;8.25;96.59
41706;BME280;27385;51.096;17.190;2023-03-21T02:47:57;100269.55;;;8.23;96.64
41706;BME280;27385;51.096;17.190;2023-03-21T02:50:36;100270.17;;;8.24;96.64
41706;BME280;27385;51.096;17.190;2023-03-21T02:53:14;100271.48;;;8.23;96.81
41706;BME280;27385;51.096;17.190;2023-03-21T02:55:46;100270.19;;;8.21;96.82
41706;BME280;27385;51.096;17.190;2023-03-21T02:58:20;100270.63;;;8.20;96.86
41706;BME280;27385;51.096;17.190;2023-03-21T03:00:52;100271.58;;;8.18;96.96
41706;BME280;27385;51.096;17.190;2023-03-21T03:03:24;100266.15;;;8.17;97.07
41706;BME280;27385;51.096;17.190;2023-03-21T03:05:58;100267.83;;;8.17;97.14
41706;BME280;27385;51.096;17.190;2023-03-21T03:08:36;100273.48;;;8.17;97.34
41706;BME280;27385;51.096;17.190;2023-03-21T03:11:25;100276.73;;;8.17;97.27
41706;BME280;27385;51.096;17.190;2023-03-21T03:14:13;100270.63;;;8.16;97.44
41706;BME280;27385;51.096;17.190;2023-03-21T03:16:53;100263.32;;;8.17;97.43
41706;BME280;27385;51.096;17.190;2023-03-21T03:19:34;100255.92;;;8.17;97.53
41706;BME280;27385;51.096;17.190;2023-03-21T03:22:08;100256.08;;;8.17;97.67
41706;BME280;27385;51.096;17.190;2023-03-21T03:24:43;100255.65;;;8.18;97.58
41706;BME280;27385;51.096;17.190;2023-03-21T03:27:18;100264.79;;;8.17;97.61
41706;BME280;27385;51.096;17.190;2023-03-21T03:29:54;100268.34;;;8.16;97.65
41706;BME280;27385;51.096;17.190;2023-03-21T03:32:30;100265.05;;;8.15;97.78
41706;BME280;27385;51.096;17.190;2023-03-21T03:35:05;100267.20;;;8.15;97.80
41706;BME280;27385;51.096;17.190;2023-03-21T03:37:39;100270.94;;;8.13;97.81
41706;BME280;27385;51.096;17.190;2023-03-21T03:40:15;100273.32;;;8.13;97.80
41706;BME280;27385;51.096;17.190;2023-03-21T03:42:52;100274.77;;;8.12;97.87
41706;BME280;27385;51.096;17.190;2023-03-21T03:45:27;100276.31;;;8.12;98.01
41706;BME280;27385;51.096;17.190;2023-03-21T03:48:05;100277.17;;;8.12;98.00
41706;BME280;27385;51.096;17.190;2023-03-21T03:53:36;100275.36;;;8.12;98.20
41706;BME280;27385;51.096;17.190;2023-03-21T03:56:11;100280.15;;;8.11;98.25
41706;BME280;27385;51.096;17.190;2023-03-21T03:58:43;100283.16;;;8.11;98.44
41706;BME280;27385;51.096;17.190;2023-03-21T04:01:14;100285.48;;;8.11;98.39
41706;BME280;27385;51.096;17.190;2023-03-21T04:03:47;100284.88;;;8.12;98.43
41706;BME280;27385;51.096;17.190;2023-03-21T04:06:19;100278.73;;;8.13;98.53
41706;BME280;27385;51.096;17.190;2023-03-21T04:08:50;100282.24;;;8.12;98.62
41706;BME280;27385;51.096;17.190;2023-03-21T04:11:21;100280.88;;;8.12;98.59
41706;BME280;27385;51.096;17.190;2023-03-21T04:13:52;100280.89;;;8.13;98.71
41706;BME280;27385;51.096;17.190;2023-03-21T04:16:23;100284.77;;;8.12;98.63
41706;BME280;27385;51.096;17.190;2023-03-21T04:18:54;100284.31;;;8.14;98.68
41706;BME280;27385;51.096;17.190;2023-03-21T04:21:25;100287.44;;;8.15;98.72
41706;BME280;27385;51.096;17.190;2023-03-21T04:23:57;100287.59;;;8.15;98.84
41706;BME280;27385;51.096;17.190;2023-03-21T04:26:28;100290.21;;;8.13;98.84
41706;BME280;27385;51.096;17.190;2023-03-21T04:29:02;100289.38;;;8.13;98.84
41706;BME280;27385;51.096;17.190;2023-03-21T04:31:34;100288.21;;;8.12;98.87
41706;BME280;27385;51.096;17.190;2023-03-21T04:34:06;100292.25;;;8.12;99.05
41706;BME280;27385;51.096;17.190;2023-03-21T04:36:38;100288.12;;;8.13;99.08
41706;BME280;27385;51.096;17.190;2023-03-21T04:39:12;100284.78;;;8.12;99.11
41706;BME280;27385;51.096;17.190;2023-03-21T04:41:45;100285.70;;;8.11;99.05
41706;BME280;27385;51.096;17.190;2023-03-21T04:44:17;100287.52;;;8.12;99.25
41706;BME280;27385;51.096;17.190;2023-03-21T04:46:49;100288.77;;;8.10;99.30
41706;BME280;27385;51.096;17.190;2023-03-21T04:49:20;100291.41;;;8.10;99.36
41706;BME280;27385;51.096;17.190;2023-03-21T04:51:51;100290.11;;;8.10;99.36
41706;BME280;27385;51.096;17.190;2023-03-21T04:54:22;100294.63;;;8.11;99.33
41706;BME280;27385;51.096;17.190;2023-03-21T04:56:53;100294.90;;;8.10;99.42
41706;BME280;27385;51.096;17.190;2023-03-21T04:59:24;100296.51;;;8.09;99.42
41706;BME280;27385;51.096;17.190;2023-03-21T05:01:55;100297.61;;;8.09;99.39
41706;BME280;27385;51.096;17.190;2023-03-21T05:04:27;100295.00;;;8.09;99.56
41706;BME280;27385;51.096;17.190;2023-03-21T05:06:58;100295.86;;;8.09;99.55
41706;BME280;27385;51.096;17.190;2023-03-21T05:09:29;100297.23;;;8.09;99.63
41706;BME280;27385;51.096;17.190;2023-03-21T05:12:00;100301.23;;;8.08;99.49
41706;BME280;27385;51.096;17.190;2023-03-21T05:14:31;100304.16;;;8.08;99.65
41706;BME280;27385;51.096;17.190;2023-03-21T05:17:02;100305.69;;;8.08;99.71
41706;BME280;27385;51.096;17.190;2023-03-21T05:19:33;100304.25;;;8.08;99.71
41706;BME280;27385;51.096;17.190;2023-03-21T05:22:08;100304.92;;;8.09;99.73
41706;BME280;27385;51.096;17.190;2023-03-21T05:24:39;100307.00;;;8.09;99.85
41706;BME280;27385;51.096;17.190;2023-03-21T05:27:10;100309.61;;;8.09;99.88
41706;BME280;27385;51.096;17.190;2023-03-21T05:29:42;100311.91;;;8.09;99.92
41706;BME280;27385;51.096;17.190;2023-03-21T05:32:13;100311.52;;;8.09;99.92
41706;BME280;27385;51.096;17.190;2023-03-21T05:34:44;100312.27;;;8.09;100.00
41706;BME280;27385;51.096;17.190;2023-03-21T05:37:15;100312.50;;;8.08;99.94
41706;BME280;27385;51.096;17.190;2023-03-21T05:39:46;100316.90;;;8.08;99.95
41706;BME280;27385;51.096;17.190;2023-03-21T05:42:17;100319.00;;;8.09;100.00
41706;BME280;27385;51.096;17.190;2023-03-21T05:44:48;100319.20;;;8.10;100.00
41706;BME280;27385;51.096;17.190;2023-03-21T05:47:19;100318.58;;;8.12;100.00
41706;BME280;27385;51.096;17.190;2023-03-21T05:49:50;100317.06;;;8.12;100.00
41706;BME280;27385;51.096;17.190;2023-03-21T05:52:21;100321.67;;;8.12;100.00
41706;BME280;27385;51.096;17.190;2023-03-21T05:54:52;100321.05;;;8.12;100.00
41706;BME280;27385;51.096;17.190;2023-03-21T05:57:23;100322.48;;;8.12;100.00
41706;BME280;27385;51.096;17.190;2023-03-21T05:59:56;100328.00;;;8.12;100.00
41706;BME280;27385;51.096;17.190;2023-03-21T06:02:27;100328.54;;;8.13;100.00
41706;BME280;27385;51.096;17.190;2023-03-21T06:04:58;100328.81;;;8.14;100.00
41706;BME280;27385;51.096;17.190;2023-03-21T06:07:29;100327.95;;;8.15;100.00
41706;BME280;27385;51.096;17.190;2023-03-21T06:10:00;100333.54;;;8.18;100.00
41706;BME280;27385;51.096;17.190;2023-03-21T06:12:31;100332.15;;;8.19;100.00
41706;BME280;27385;51.096;17.190;2023-03-21T06:15:03;100332.21;;;8.20;100.00
41706;BME280;27385;51.096;17.190;2023-03-21T06:17:37;100335.53;;;8.21;100.00
41706;BME280;27385;51.096;17.190;2023-03-21T06:20:10;100331.23;;;8.21;100.00
41706;BME280;27385;51.096;17.190;2023-03-21T06:22:41;100334.81;;;8.22;100.00
41706;BME280;27385;51.096;17.190;2023-03-21T06:25:12;100335.75;;;8.23;100.00
41706;BME280;27385;51.096;17.190;2023-03-21T06:27:44;100338.31;;;8.24;100.00
41706;BME280;27385;51.096;17.190;2023-03-21T06:30:16;100340.31;;;8.24;100.00
41706;BME280;27385;51.096;17.190;2023-03-21T06:32:48;100344.34;;;8.25;100.00
41706;BME280;27385;51.096;17.190;2023-03-21T06:35:19;100341.43;;;8.27;100.00
41706;BME280;27385;51.096;17.190;2023-03-21T06:37:50;100342.52;;;8.27;100.00
41706;BME280;27385;51.096;17.190;2023-03-21T06:40:21;100342.37;;;8.29;100.00
41706;BME280;27385;51.096;17.190;2023-03-21T06:42:52;100346.39;;;8.30;100.00
41706;BME280;27385;51.096;17.190;2023-03-21T06:45:23;100352.78;;;8.31;100.00
41706;BME280;27385;51.096;17.190;2023-03-21T06:47:54;100347.65;;;8.32;100.00
41706;BME280;27385;51.096;17.190;2023-03-21T06:50:25;100353.09;;;8.33;100.00
41706;BME280;27385;51.096;17.190;2023-03-21T06:52:56;100353.63;;;8.33;100.00
41706;BME280;27385;51.096;17.190;2023-03-21T06:55:28;100353.02;;;8.34;100.00
41706;BME280;27385;51.096;17.190;2023-03-21T06:57:59;100356.27;;;8.34;100.00
41706;BME280;27385;51.096;17.190;2023-03-21T07:00:31;100362.22;;;8.33;100.00
41706;BME280;27385;51.096;17.190;2023-03-21T07:03:02;100367.29;;;8.33;100.00
41706;BME280;27385;51.096;17.190;2023-03-21T07:05:35;100368.02;;;8.35;100.00
41706;BME280;27385;51.096;17.190;2023-03-21T07:08:07;100372.97;;;8.34;100.00
41706;BME280;27385;51.096;17.190;2023-03-21T07:10:41;100370.16;;;8.33;100.00
41706;BME280;27385;51.096;17.190;2023-03-21T07:13:12;100370.66;;;8.33;100.00
41706;BME280;27385;51.096;17.190;2023-03-21T07:15:44;100374.14;;;8.33;100.00
41706;BME280;27385;51.096;17.190;2023-03-21T07:18:15;100376.16;;;8.33;99.99
41706;BME280;27385;51.096;17.190;2023-03-21T07:20:49;100373.28;;;8.33;99.98
41706;BME280;27385;51.096;17.190;2023-03-21T07:23:22;100370.34;;;8.34;99.92
41706;BME280;27385;51.096;17.190;2023-03-21T07:25:54;100373.00;;;8.37;99.93
41706;BME280;27385;51.096;17.190;2023-03-21T07:28:25;100372.83;;;8.40;99.65
41706;BME280;27385;51.096;17.190;2023-03-21T07:30:59;100375.33;;;8.43;99.52
41706;BME280;27385;51.096;17.190;2023-03-21T07:33:32;100375.95;;;8.46;99.45
41706;BME280;27385;51.096;17.190;2023-03-21T07:36:07;100376.80;;;8.49;99.31
41706;BME280;27385;51.096;17.190;2023-03-21T07:38:39;100378.53;;;8.51;99.01
41706;BME280;27385;51.096;17.190;2023-03-21T07:41:22;100381.91;;;8.54;98.87
41706;BME280;27385;51.096;17.190;2023-03-21T07:43:56;100382.98;;;8.57;98.61
41706;BME280;27385;51.096;17.190;2023-03-21T07:46:27;100380.77;;;8.58;98.16
41706;BME280;27385;51.096;17.190;2023-03-21T07:48:58;100381.27;;;8.60;98.15
41706;BME280;27385;51.096;17.190;2023-03-21T07:51:29;100384.70;;;8.61;98.02
41706;BME280;27385;51.096;17.190;2023-03-21T07:54:00;100382.39;;;8.63;97.36
41706;BME280;27385;51.096;17.190;2023-03-21T07:56:31;100388.14;;;8.65;96.89
41706;BME280;27385;51.096;17.190;2023-03-21T07:59:02;100385.70;;;8.66;96.45
41706;BME280;27385;51.096;17.190;2023-03-21T08:01:33;100392.45;;;8.66;96.35
41706;BME280;27385;51.096;17.190;2023-03-21T08:04:04;100390.55;;;8.68;96.15
41706;BME280;27385;51.096;17.190;2023-03-21T08:06:37;100389.45;;;8.69;96.35
41706;BME280;27385;51.096;17.190;2023-03-21T08:09:08;100389.02;;;8.74;96.39
41706;BME280;27385;51.096;17.190;2023-03-21T08:14:30;100391.30;;;8.83;94.77
41706;BME280;27385;51.096;17.190;2023-03-21T08:17:02;100390.54;;;8.86;94.59
41706;BME280;27385;51.096;17.190;2023-03-21T08:19:33;100389.91;;;8.90;94.85
41706;BME280;27385;51.096;17.190;2023-03-21T08:22:05;100392.75;;;8.92;94.46
41706;BME280;27385;51.096;17.190;2023-03-21T08:24:36;100394.13;;;8.93;94.96
41706;BME280;27385;51.096;17.190;2023-03-21T08:27:07;100396.14;;;8.97;95.11
41706;BME280;27385;51.096;17.190;2023-03-21T08:29:39;100400.98;;;8.98;94.82
41706;BME280;27385;51.096;17.190;2023-03-21T08:32:10;100399.05;;;9.00;95.12
41706;BME280;27385;51.096;17.190;2023-03-21T08:34:42;100402.45;;;9.02;95.45
41706;BME280;27385;51.096;17.190;2023-03-21T08:37:12;100404.45;;;9.03;94.92
41706;BME280;27385;51.096;17.190;2023-03-21T08:39:44;100409.98;;;9.02;94.28
41706;BME280;27385;51.096;17.190;2023-03-21T08:42:15;100406.23;;;8.99;93.94
41706;BME280;27385;51.096;17.190;2023-03-21T08:44:46;100408.70;;;8.97;94.47
41706;BME280;27385;51.096;17.190;2023-03-21T08:47:17;100410.61;;;8.95;94.10
41706;BME280;27385;51.096;17.190;2023-03-21T08:49:49;100414.88;;;8.90;93.52
41706;BME280;27385;51.096;17.190;2023-03-21T08:52:19;100415.21;;;8.84;93.92
41706;BME280;27385;51.096;17.190;2023-03-21T08:54:50;100421.92;;;8.80;94.01
41706;BME280;27385;51.096;17.190;2023-03-21T08:57:21;100425.42;;;8.76;94.28
41706;BME280;27385;51.096;17.190;2023-03-21T08:59:52;100424.98;;;8.75;94.41
41706;BME280;27385;51.096;17.190;2023-03-21T09:02:23;100427.54;;;8.73;94.72
41706;BME280;27385;51.096;17.190;2023-03-21T09:04:54;100426.61;;;8.72;94.67
41706;BME280;27385;51.096;17.190;2023-03-21T09:07:27;100430.05;;;8.74;95.15
41706;BME280;27385;51.096;17.190;2023-03-21T09:10:02;100433.39;;;8.74;95.48
41706;BME280;27385;51.096;17.190;2023-03-21T09:12:34;100438.56;;;8.74;95.75
41706;BME280;27385;51.096;17.190;2023-03-21T09:15:08;100437.51;;;8.74;95.61
41706;BME280;27385;51.096;17.190;2023-03-21T09:17:41;100433.67;;;8.77;95.96
41706;BME280;27385;51.096;17.190;2023-03-21T09:22:48;100434.52;;;8.84;96.00
41706;BME280;27385;51.096;17.190;2023-03-21T09:25:20;100434.25;;;8.91;96.40
41706;BME280;27385;51.096;17.190;2023-03-21T09:27:52;100434.41;;;8.97;96.27
41706;BME280;27385;51.096;17.190;2023-03-21T09:30:23;100429.37;;;9.03;96.09
41706;BME280;27385;51.096;17.190;2023-03-21T09:32:55;100432.21;;;9.11;95.67
41706;BME280;27385;51.096;17.190;2023-03-21T09:35:26;100430.96;;;9.13;94.76
41706;BME280;27385;51.096;17.190;2023-03-21T09:37:58;100429.27;;;9.18;94.41
41706;BME280;27385;51.096;17.190;2023-03-21T09:40:47;100432.23;;;9.22;94.63
41706;BME280;27385;51.096;17.190;2023-03-21T09:43:33;100431.94;;;9.32;94.37
41706;BME280;27385;51.096;17.190;2023-03-21T09:46:11;100429.69;;;9.40;93.77
41706;BME280;27385;51.096;17.190;2023-03-21T09:48:53;100428.83;;;9.48;93.24
41706;BME280;27385;51.096;17.190;2023-03-21T09:51:30;100427.96;;;9.55;92.82
41706;BME280;27385;51.096;17.190;2023-03-21T09:54:05;100419.70;;;9.64;93.11
41706;BME280;27385;51.096;17.190;2023-03-21T09:56:41;100421.05;;;9.75;93.11
41706;BME280;27385;51.096;17.190;2023-03-21T09:59:20;100423.46;;;9.82;92.35
41706;BME280;27385;51.096;17.190;2023-03-21T10:01:52;100421.55;;;9.89;92.07
41706;BME280;27385;51.096;17.190;2023-03-21T10:04:24;100419.79;;;9.97;92.19
41706;BME280;27385;51.096;17.190;2023-03-21T10:06:58;100415.56;;;10.07;91.85
41706;BME280;27385;51.096;17.190;2023-03-21T10:09:31;100415.48;;;10.16;91.46
41706;BME280;27385;51.096;17.190;2023-03-21T10:12:05;100416.49;;;10.20;91.12
41706;BME280;27385;51.096;17.190;2023-03-21T10:14:47;100415.86;;;10.21;91.19
41706;BME280;27385;51.096;17.190;2023-03-21T10:17:27;100418.21;;;10.22;90.00
41706;BME280;27385;51.096;17.190;2023-03-21T10:20:13;100417.11;;;10.22;90.70
41706;BME280;27385;51.096;17.190;2023-03-21T10:22:46;100415.16;;;10.26;90.38
41706;BME280;27385;51.096;17.190;2023-03-21T10:25:20;100417.62;;;10.31;90.58
41706;BME280;27385;51.096;17.190;2023-03-21T10:27:52;100421.67;;;10.36;89.83
41706;BME280;27385;51.096;17.190;2023-03-21T10:30:31;100420.39;;;10.35;88.84
41706;BME280;27385;51.096;17.190;2023-03-21T10:33:07;100415.52;;;10.33;89.14
41706;BME280;27385;51.096;17.190;2023-03-21T10:35:40;100415.87;;;10.39;89.19
41706;BME280;27385;51.096;17.190;2023-03-21T10:38:17;100422.11;;;10.48;89.61
41706;BME280;27385;51.096;17.190;2023-03-21T10:40:48;100422.58;;;10.55;88.75
41706;BME280;27385;51.096;17.190;2023-03-21T10:43:34;100421.67;;;10.58;87.96
41706;BME280;27385;51.096;17.190;2023-03-21T10:46:12;100421.06;;;10.63;87.51
41706;BME280;27385;51.096;17.190;2023-03-21T10:48:51;100419.98;;;10.65;86.63
41706;BME280;27385;51.096;17.190;2023-03-21T10:51:27;100415.64;;;10.61;86.83
41706;BME280;27385;51.096;17.190;2023-03-21T10:53:59;100416.52;;;10.61;86.95
41706;BME280;27385;51.096;17.190;2023-03-21T10:56:37;100413.48;;;10.63;86.79
41706;BME280;27385;51.096;17.190;2023-03-21T10:59:11;100415.10;;;10.64;86.27
41706;BME280;27385;51.096;17.190;2023-03-21T11:01:50;100412.89;;;10.64;86.21
41706;BME280;27385;51.096;17.190;2023-03-21T11:04:26;100414.27;;;10.63;86.70
41706;BME280;27385;51.096;17.190;2023-03-21T11:07:02;100412.08;;;10.64;86.67
41706;BME280;27385;51.096;17.190;2023-03-21T11:09:46;100414.04;;;10.63;86.42
41706;BME280;27385;51.096;17.190;2023-03-21T11:12:27;100409.84;;;10.63;86.24
41706;BME280;27385;51.096;17.190;2023-03-21T11:15:23;100409.04;;;10.59;85.57
41706;BME280;27385;51.096;17.190;2023-03-21T11:17:54;100407.85;;;10.57;86.11
41706;BME280;27385;51.096;17.190;2023-03-21T11:20:27;100402.92;;;10.60;86.38
41706;BME280;27385;51.096;17.190;2023-03-21T11:23:03;100402.55;;;10.66;86.43
41706;BME280;27385;51.096;17.190;2023-03-21T11:25:38;100399.66;;;10.71;86.27
41706;BME280;27385;51.096;17.190;2023-03-21T11:28:15;100401.63;;;10.73;86.16
41706;BME280;27385;51.096;17.190;2023-03-21T11:30:55;100397.41;;;10.78;86.11
41706;BME280;27385;51.096;17.190;2023-03-21T11:33:30;100399.98;;;10.77;85.36
41706;BME280;27385;51.096;17.190;2023-03-21T11:36:05;100398.86;;;10.77;85.84
41706;BME280;27385;51.096;17.190;2023-03-21T11:38:39;100392.55;;;10.81;86.02
41706;BME280;27385;51.096;17.190;2023-03-21T11:41:11;100391.64;;;10.81;85.49
41706;BME280;27385;51.096;17.190;2023-03-21T11:43:53;100388.44;;;10.78;85.29
41706;BME280;27385;51.096;17.190;2023-03-21T11:46:26;100387.62;;;10.74;84.39
41706;BME280;27385;51.096;17.190;2023-03-21T11:48:59;100387.91;;;10.70;84.72
41706;BME280;27385;51.096;17.190;2023-03-21T11:51:35;100388.03;;;10.66;83.05
41706;BME280;27385;51.096;17.190;2023-03-21T11:54:14;100384.90;;;10.60;82.48
41706;BME280;27385;51.096;17.190;2023-03-21T11:56:47;100379.77;;;10.57;83.11
41706;BME280;27385;51.096;17.190;2023-03-21T11:59:27;100379.93;;;10.55;83.25
41706;BME280;27385;51.096;17.190;2023-03-21T12:02:13;100383.16;;;10.56;82.98
41706;BME280;27385;51.096;17.190;2023-03-21T12:04:53;100378.09;;;10.54;82.83
41706;BME280;27385;51.096;17.190;2023-03-21T12:07:36;100376.06;;;10.52;82.44
41706;BME280;27385;51.096;17.190;2023-03-21T12:10:34;100378.52;;;10.50;82.36
41706;BME280;27385;51.096;17.190;2023-03-21T12:13:24;100373.71;;;10.49;82.69
41706;BME280;27385;51.096;17.190;2023-03-21T12:16:10;100368.05;;;10.52;82.90
41706;BME280;27385;51.096;17.190;2023-03-21T12:18:57;100367.19;;;10.60;83.06
41706;BME280;27385;51.096;17.190;2023-03-21T12:21:36;100361.40;;;10.68;82.47
41706;BME280;27385;51.096;17.190;2023-03-21T12:24:09;100358.96;;;10.73;82.37
41706;BME280;27385;51.096;17.190;2023-03-21T12:26:53;100357.71;;;10.78;81.97
41706;BME280;27385;51.096;17.190;2023-03-21T12:32:41;100354.92;;;10.86;81.14
41706;BME280;27385;51.096;17.190;2023-03-21T12:35:27;100354.89;;;10.90;80.60
41706;BME280;27385;51.096;17.190;2023-03-21T12:38:12;100353.41;;;10.92;80.08
41706;BME280;27385;51.096;17.190;2023-03-21T12:40:56;100350.48;;;10.93;79.99
41706;BME280;27385;51.096;17.190;2023-03-21T12:43:42;100347.22;;;10.94;80.00
41706;BME280;27385;51.096;17.190;2023-03-21T12:46:20;100341.02;;;11.00;80.37
41706;BME280;27385;51.096;17.190;2023-03-21T12:48:56;100343.27;;;11.06;79.98
41706;BME280;27385;51.096;17.190;2023-03-21T12:51:30;100338.80;;;11.08;79.96
41706;BME280;27385;51.096;17.190;2023-03-21T12:54:09;100338.17;;;11.13;79.26
41706;BME280;27385;51.096;17.190;2023-03-21T12:56:49;100337.06;;;11.14;79.40
41706;BME280;27385;51.096;17.190;2023-03-21T12:59:28;100335.11;;;11.19;79.45
41706;BME280;27385;51.096;17.190;2023-03-21T13:02:12;100338.41;;;11.21;78.90
41706;BME280;27385;51.096;17.190;2023-03-21T13:04:54;100333.93;;;11.20;78.63
41706;BME280;27385;51.096;17.190;2023-03-21T13:07:30;100328.48;;;11.22;79.03
41706;BME280;27385;51.096;17.190;2023-03-21T13:10:11;100323.80;;;11.27;78.91
41706;BME280;27385;51.096;17.190;2023-03-21T13:12:50;100324.95;;;11.33;78.56
41706;BME280;27385;51.096;17.190;2023-03-21T13:15:37;100321.39;;;11.35;78.35
41706;BME280;27385;51.096;17.190;2023-03-21T13:18:18;100319.16;;;11.36;77.65
41706;BME280;27385;51.096;17.190;2023-03-21T13:20:55;100316.83;;;11.36;77.73
41706;BME280;27385;51.096;17.190;2023-03-21T13:23:34;100311.69;;;11.35;77.34
41706;BME280;27385;51.096;17.190;2023-03-21T13:26:09;100308.38;;;11.35;77.66
41706;BME280;27385;51.096;17.190;2023-03-21T13:28:42;100308.71;;;11.40;77.46
41706;BME280;27385;51.096;17.190;2023-03-21T13:31:18;100305.98;;;11.41;77.19
41706;BME280;27385;51.096;17.190;2023-03-21T13:33:51;100305.36;;;11.44;77.04
41706;BME280;27385;51.096;17.190;2023-03-21T13:36:27;100301.76;;;11.44;76.81
41706;BME280;27385;51.096;17.190;2023-03-21T13:39:02;100297.27;;;11.45;76.67